Time;durP1;ratioP1;P1;durP2;ratioP2;P2;SDS_P1;SDS_P2;PMS_P1;PMS_P2;Temp;Humidity;BMP_temperature;BMP_pressure;BME280_temperature;BME280_humidity;BME280_pressure;Samples;Min_cycle;Max_cycle;Signal;HPM_P1;HPM_P2
2021/08/08 00:01:51;;;;;;;4.70;3.45;;;20.20;99.90;;;;;;5050787;28;20197;-71
2021/08/08 00:04:22;;;;;;;3.80;3.50;;;20.20;99.90;;;;;;5050224;28;20208;-70
2021/08/08 00:06:49;;;;;;;3.95;3.55;;;20.10;99.90;;;;;;5053134;28;20207;-70
2021/08/08 00:09:16;;;;;;;3.70;2.90;;;20.00;99.90;;;;;;5047693;28;20671;-70
2021/08/08 00:11:43;;;;;;;4.18;3.70;;;20.00;99.90;;;;;;5052287;28;20421;-70
2021/08/08 00:14:10;;;;;;;3.55;2.95;;;19.90;99.90;;;;;;5050838;28;20208;-70
2021/08/08 00:16:37;;;;;;;3.40;3.10;;;19.80;99.90;;;;;;5052518;28;20646;-70
2021/08/08 00:19:04;;;;;;;3.17;2.95;;;19.80;99.90;;;;;;5051371;28;20212;-70
2021/08/08 00:21:33;;;;;;;3.03;2.83;;;19.80;99.90;;;;;;5052098;28;20265;-70
2021/08/08 00:24:00;;;;;;;6.30;3.75;;;19.70;99.90;;;;;;5047355;28;20217;-70
2021/08/08 00:26:26;;;;;;;4.05;3.28;;;19.70;99.90;;;;;;5050720;28;20202;-70
2021/08/08 00:28:53;;;;;;;3.67;3.38;;;19.60;99.90;;;;;;5051055;28;20608;-70
2021/08/08 00:31:24;;;;;;;3.13;2.92;;;19.60;99.90;;;;;;5050392;28;20214;-70
2021/08/08 00:33:54;;;;;;;3.30;3.10;;;19.60;99.90;;;;;;5049388;28;20753;-70
2021/08/08 00:36:22;;;;;;;3.80;3.50;;;19.60;99.90;;;;;;5050790;28;20616;-70
2021/08/08 00:38:54;;;;;;;4.15;3.58;;;19.50;99.90;;;;;;5050070;28;20205;-70
2021/08/08 00:41:20;;;;;;;4.80;3.42;;;19.50;99.90;;;;;;5057744;28;20303;-71
2021/08/08 00:43:48;;;;;;;5.47;3.45;;;19.50;99.90;;;;;;5042065;28;20210;-71
2021/08/08 00:46:15;;;;;;;4.43;3.17;;;19.50;99.90;;;;;;5047024;28;20291;-70
2021/08/08 00:48:44;;;;;;;4.00;3.00;;;19.40;99.90;;;;;;5038909;28;20202;-71
2021/08/08 00:51:15;;;;;;;3.28;3.00;;;19.40;99.90;;;;;;5049102;28;20217;-71
2021/08/08 00:53:46;;;;;;;3.47;3.22;;;19.40;99.90;;;;;;5047553;28;20624;-71
2021/08/08 00:56:16;;;;;;;4.80;3.80;;;19.40;99.90;;;;;;5057139;28;20542;-71
2021/08/08 00:58:43;;;;;;;3.65;3.35;;;19.40;99.90;;;;;;5049546;28;20209;-71
2021/08/08 01:01:13;;;;;;;5.30;3.80;;;19.40;99.90;;;;;;5049667;28;20202;-70
2021/08/08 01:03:42;;;;;;;3.45;3.15;;;19.40;99.90;;;;;;5049065;28;20495;-70
2021/08/08 01:06:25;;;;;;;3.20;3.00;;;19.40;99.90;;;;;;5049424;28;20316;-71
2021/08/08 01:08:56;;;;;;;4.05;3.40;;;19.40;99.90;;;;;;5047732;28;20255;-71
2021/08/08 01:11:26;;;;;;;3.17;2.97;;;19.40;99.90;;;;;;5049116;28;20218;-69
2021/08/08 01:13:54;;;;;;;3.60;3.30;;;19.40;99.90;;;;;;5050103;28;20209;-71
2021/08/08 01:16:23;;;;;;;3.53;3.22;;;19.40;99.90;;;;;;5048599;28;20186;-70
2021/08/08 01:18:53;;;;;;;3.33;2.60;;;19.40;99.90;;;;;;5048615;28;20260;-68
2021/08/08 01:21:23;;;;;;;2.97;2.78;;;19.40;99.90;;;;;;5050670;28;20638;-68
2021/08/08 01:23:56;;;;;;;3.83;2.95;;;19.40;99.90;;;;;;5050578;28;20301;-69
2021/08/08 01:26:26;;;;;;;3.65;3.35;;;19.40;99.90;;;;;;5049283;28;20283;-69
2021/08/08 01:28:54;;;;;;;3.33;3.13;;;19.40;99.90;;;;;;5065769;28;20286;-69
2021/08/08 01:31:22;;;;;;;3.38;3.08;;;19.40;99.90;;;;;;5049116;28;20776;-70
2021/08/08 01:33:50;;;;;;;3.47;3.10;;;19.40;99.90;;;;;;5048133;28;20209;-69
2021/08/08 01:36:18;;;;;;;3.28;3.05;;;19.30;99.90;;;;;;5050327;28;20585;-69
2021/08/08 01:38:52;;;;;;;3.15;2.95;;;19.20;99.90;;;;;;5047250;28;20218;-69
2021/08/08 01:41:23;;;;;;;3.97;2.92;;;19.20;99.90;;;;;;5048404;28;20197;-69
2021/08/08 01:43:58;;;;;;;3.17;2.97;;;19.20;99.90;;;;;;5059550;28;20202;-69
2021/08/08 01:46:28;;;;;;;3.58;3.10;;;19.20;99.90;;;;;;5049285;28;20232;-69
2021/08/08 01:49:09;;;;;;;2.78;2.60;;;19.20;99.90;;;;;;5048137;28;20245;-69
2021/08/08 01:51:37;;;;;;;3.03;2.80;;;19.10;99.90;;;;;;5048159;28;20225;-69
2021/08/08 01:54:04;;;;;;;3.30;3.10;;;19.10;99.90;;;;;;5045166;28;20228;-69
2021/08/08 01:56:35;;;;;;;5.00;2.88;;;19.10;99.90;;;;;;5053033;28;20213;-69
2021/08/08 01:59:02;;;;;;;3.60;3.30;;;19.10;99.90;;;;;;5036651;28;20776;-69
2021/08/08 02:01:31;;;;;;;3.83;3.53;;;19.10;99.90;;;;;;5048017;28;20923;-69
2021/08/08 02:04:16;;;;;;;5.00;4.10;;;19.10;99.90;;;;;;5047541;28;20202;-69
2021/08/08 02:06:44;;;;;;;6.22;4.25;;;19.10;99.90;;;;;;5048898;28;20685;-69
2021/08/08 02:09:12;;;;;;;4.70;4.30;;;19.00;99.90;;;;;;5045912;28;20227;-68
2021/08/08 02:11:41;;;;;;;5.43;3.75;;;19.00;99.90;;;;;;5049047;28;20229;-70
2021/08/08 02:14:11;;;;;;;4.47;3.65;;;19.00;99.90;;;;;;5047834;28;20228;-69
2021/08/08 02:16:38;;;;;;;4.35;3.72;;;18.90;99.90;;;;;;5048889;28;20209;-69
2021/08/08 02:19:08;;;;;;;3.40;3.10;;;18.90;99.90;;;;;;5047646;28;20212;-69
2021/08/08 02:21:46;;;;;;;3.50;3.20;;;18.90;99.90;;;;;;5041099;28;20585;-70
2021/08/08 02:24:13;;;;;;;4.38;3.45;;;18.90;99.90;;;;;;5044271;28;20917;-69
2021/08/08 02:26:52;;;;;;;4.03;3.63;;;18.90;99.90;;;;;;5065616;28;20703;-70
2021/08/08 02:29:19;;;;;;;4.80;4.10;;;18.90;99.90;;;;;;5057034;28;20509;-69
2021/08/08 02:31:46;;;;;;;5.72;3.80;;;18.80;99.90;;;;;;5049888;28;20416;-70
2021/08/08 02:34:26;;;;;;;3.22;3.00;;;18.90;99.90;;;;;;5047405;28;20580;-69
2021/08/08 02:36:53;;;;;;;3.58;3.28;;;18.90;99.90;;;;;;5047278;28;20213;-70
2021/08/08 02:39:20;;;;;;;2.97;2.73;;;18.90;99.90;;;;;;5046080;28;20339;-69
2021/08/08 02:41:47;;;;;;;2.80;2.60;;;18.90;99.90;;;;;;5048556;28;20208;-69
2021/08/08 02:44:16;;;;;;;2.55;2.42;;;19.00;99.90;;;;;;5039394;28;20212;-69
2021/08/08 02:46:43;;;;;;;3.40;3.20;;;19.10;99.90;;;;;;5047920;28;20738;-70
2021/08/08 02:49:10;;;;;;;2.47;2.28;;;19.00;99.90;;;;;;5047048;28;20209;-70
2021/08/08 02:51:37;;;;;;;4.60;2.60;;;19.10;99.90;;;;;;5047630;28;20220;-70
2021/08/08 02:54:05;;;;;;;3.70;3.40;;;19.10;99.90;;;;;;5044781;28;20231;-70
2021/08/08 02:56:33;;;;;;;3.40;3.15;;;19.10;99.90;;;;;;5056752;28;20330;-70
2021/08/08 02:58:59;;;;;;;2.97;2.78;;;19.00;99.90;;;;;;5047557;28;20802;-70
2021/08/08 03:01:28;;;;;;;3.13;2.85;;;19.00;99.90;;;;;;5047888;28;20259;-70
2021/08/08 03:03:55;;;;;;;2.70;2.58;;;19.00;99.90;;;;;;5047114;28;20689;-70
2021/08/08 03:06:22;;;;;;;2.60;2.40;;;19.10;99.90;;;;;;5048724;28;20566;-70
2021/08/08 03:08:49;;;;;;;2.20;2.10;;;19.10;99.90;;;;;;5050918;28;20202;-70
2021/08/08 03:11:17;;;;;;;3.35;2.72;;;19.10;99.90;;;;;;5045844;28;20255;-69
2021/08/08 03:13:44;;;;;;;3.47;3.20;;;19.00;99.90;;;;;;5046857;28;20209;-71
2021/08/08 03:16:12;;;;;;;3.03;2.83;;;19.00;99.90;;;;;;5045186;28;20209;-70
2021/08/08 03:18:40;;;;;;;3.00;2.80;;;19.00;99.90;;;;;;5047510;28;20243;-70
2021/08/08 03:21:07;;;;;;;2.70;2.60;;;19.00;99.90;;;;;;5047387;28;20233;-70
2021/08/08 03:23:36;;;;;;;5.63;3.55;;;19.00;99.90;;;;;;5045159;28;20206;-70
2021/08/08 03:26:04;;;;;;;4.35;3.50;;;19.00;99.90;;;;;;5046271;28;20558;-69
2021/08/08 03:28:33;;;;;;;3.83;3.50;;;19.00;99.90;;;;;;5046651;28;20226;-70
2021/08/08 03:31:00;;;;;;;3.08;2.88;;;19.00;99.90;;;;;;5047140;28;20221;-69
2021/08/08 03:33:27;;;;;;;3.67;3.10;;;19.00;99.90;;;;;;5046198;28;20240;-70
2021/08/08 03:35:55;;;;;;;3.53;3.22;;;19.00;99.90;;;;;;5046302;28;20195;-71
2021/08/08 03:38:22;;;;;;;3.83;3.53;;;19.00;99.90;;;;;;5045221;28;20219;-69
2021/08/08 03:40:49;;;;;;;4.68;4.00;;;19.00;99.90;;;;;;5046689;28;20209;-70
2021/08/08 03:43:17;;;;;;;3.75;3.40;;;19.00;99.90;;;;;;5046268;28;20419;-70
2021/08/08 03:45:44;;;;;;;3.20;3.00;;;19.00;99.90;;;;;;5046699;28;20616;-70
2021/08/08 03:48:11;;;;;;;3.30;3.00;;;19.00;99.90;;;;;;5049340;28;20671;-69
2021/08/08 03:50:39;;;;;;;5.68;3.10;;;19.00;99.90;;;;;;5047835;28;20620;-69
2021/08/08 03:53:08;;;;;;;2.95;2.65;;;19.00;99.90;;;;;;5047650;28;20217;-69
2021/08/08 03:55:35;;;;;;;3.03;2.80;;;19.10;99.90;;;;;;5050191;28;20203;-68
2021/08/08 03:58:02;;;;;;;2.70;2.55;;;19.10;99.90;;;;;;5048843;28;20204;-68
2021/08/08 04:00:30;;;;;;;3.40;3.10;;;19.10;99.90;;;;;;5047315;28;20198;-69
2021/08/08 04:02:57;;;;;;;2.95;2.75;;;19.10;99.90;;;;;;5046414;28;20685;-68
2021/08/08 04:05:24;;;;;;;3.45;3.15;;;19.10;99.90;;;;;;5047175;28;20204;-68
2021/08/08 04:07:53;;;;;;;3.17;2.95;;;19.20;99.90;;;;;;5045169;28;20213;-68
2021/08/08 04:10:22;;;;;;;3.63;3.08;;;19.20;99.90;;;;;;5046471;28;20249;-68
2021/08/08 04:12:49;;;;;;;2.85;2.70;;;19.20;99.90;;;;;;5046822;28;20303;-69
2021/08/08 04:15:20;;;;;;;2.37;2.27;;;19.20;99.90;;;;;;5046424;28;20198;-68
2021/08/08 04:17:48;;;;;;;2.20;2.10;;;19.20;99.90;;;;;;5046645;28;20296;-68
2021/08/08 04:20:16;;;;;;;2.47;2.30;;;19.20;99.90;;;;;;5046555;28;20206;-69
2021/08/08 04:22:43;;;;;;;1.98;1.77;;;19.30;99.90;;;;;;5045101;28;20205;-69
2021/08/08 04:25:11;;;;;;;1.90;1.80;;;19.30;99.90;;;;;;5044900;28;20201;-68
2021/08/08 04:27:40;;;;;;;1.83;1.73;;;19.30;99.90;;;;;;5029442;28;20225;-68
2021/08/08 04:30:07;;;;;;;3.53;2.20;;;19.30;99.90;;;;;;5046756;28;20227;-69
2021/08/08 04:32:36;;;;;;;2.17;2.00;;;19.30;99.90;;;;;;5046391;28;20230;-69
2021/08/08 04:35:03;;;;;;;1.98;1.88;;;19.40;99.90;;;;;;5046199;28;20206;-69
2021/08/08 04:37:31;;;;;;;1.70;1.60;;;19.40;99.90;;;;;;5044864;28;20284;-69
2021/08/08 04:39:59;;;;;;;1.67;1.58;;;19.40;99.90;;;;;;5045226;28;20693;-69
2021/08/08 04:42:26;;;;;;;1.90;1.80;;;19.40;99.90;;;;;;5046348;28;20233;-69
2021/08/08 04:44:54;;;;;;;2.00;1.90;;;19.50;99.90;;;;;;5047064;28;20285;-69
2021/08/08 04:47:21;;;;;;;1.95;1.70;;;19.50;99.90;;;;;;5047528;28;20248;-69
2021/08/08 04:49:48;;;;;;;1.80;1.70;;;19.50;99.90;;;;;;5049050;28;20490;-69
2021/08/08 04:52:15;;;;;;;1.73;1.63;;;19.50;99.90;;;;;;5060044;28;20396;-69
2021/08/08 04:54:43;;;;;;;1.65;1.55;;;19.50;99.90;;;;;;5047413;28;20216;-69
2021/08/08 04:57:11;;;;;;;1.63;1.40;;;19.50;99.90;;;;;;5049697;28;20316;-69
2021/08/08 04:59:38;;;;;;;1.52;1.42;;;19.60;99.90;;;;;;5049117;28;20209;-68
2021/08/08 05:02:06;;;;;;;1.73;1.63;;;19.50;99.90;;;;;;5050178;28;20204;-68
2021/08/08 05:04:34;;;;;;;1.35;1.25;;;19.50;99.90;;;;;;5050832;28;20202;-68
2021/08/08 05:07:01;;;;;;;1.42;1.33;;;19.50;99.90;;;;;;5049508;28;20279;-68
2021/08/08 05:09:28;;;;;;;1.30;1.20;;;19.50;99.90;;;;;;5047610;28;20252;-68
2021/08/08 05:11:55;;;;;;;1.52;1.42;;;19.50;99.90;;;;;;5050189;28;20217;-68
2021/08/08 05:14:22;;;;;;;1.35;1.35;;;19.50;99.90;;;;;;5049232;28;20299;-68
2021/08/08 05:16:50;;;;;;;1.20;1.20;;;19.60;99.90;;;;;;5048744;28;20194;-69
2021/08/08 05:19:18;;;;;;;1.40;1.33;;;19.60;99.90;;;;;;5049276;28;20296;-69
2021/08/08 05:21:45;;;;;;;1.40;1.40;;;19.60;99.90;;;;;;5050147;28;20225;-69
2021/08/08 05:24:12;;;;;;;1.50;1.40;;;19.60;99.90;;;;;;5047005;28;20243;-69
2021/08/08 05:26:39;;;;;;;1.33;1.33;;;19.60;99.90;;;;;;5050512;28;20347;-70
2021/08/08 05:29:06;;;;;;;2.80;1.40;;;19.60;99.90;;;;;;5048833;28;20695;-70
2021/08/08 05:31:33;;;;;;;1.48;1.38;;;19.60;99.90;;;;;;5050072;28;20639;-70
2021/08/08 05:34:01;;;;;;;1.58;1.48;;;19.70;99.90;;;;;;5048844;28;20244;-70
2021/08/08 05:36:30;;;;;;;1.55;1.45;;;19.60;99.90;;;;;;5048868;28;20295;-69
2021/08/08 05:38:58;;;;;;;1.55;1.45;;;19.60;99.90;;;;;;5042593;28;20276;-70
2021/08/08 05:41:25;;;;;;;1.33;1.30;;;19.70;99.90;;;;;;5044070;28;20202;-70
2021/08/08 05:43:52;;;;;;;1.20;1.10;;;19.70;99.90;;;;;;5048963;28;20201;-70
2021/08/08 05:46:19;;;;;;;1.13;1.02;;;19.70;99.90;;;;;;5059525;28;20205;-70
2021/08/08 05:48:46;;;;;;;1.20;1.20;;;19.80;99.90;;;;;;5042010;28;20216;-70
2021/08/08 05:51:13;;;;;;;1.33;1.23;;;19.80;99.90;;;;;;5047381;28;20357;-69
2021/08/08 05:53:42;;;;;;;1.17;1.17;;;19.80;99.90;;;;;;5047394;28;20201;-70
2021/08/08 05:56:09;;;;;;;1.55;1.45;;;19.90;99.90;;;;;;5055877;28;20658;-69
2021/08/08 05:58:41;;;;;;;1.92;1.55;;;20.00;99.90;;;;;;5048151;28;20285;-69
2021/08/08 06:01:08;;;;;;;2.00;1.42;;;20.00;99.90;;;;;;5048845;28;20608;-69
2021/08/08 06:03:35;;;;;;;1.23;1.20;;;20.00;99.90;;;;;;5048453;28;20293;-69
2021/08/08 06:06:02;;;;;;;1.25;1.25;;;20.00;99.90;;;;;;5051745;28;20259;-69
2021/08/08 06:08:30;;;;;;;1.50;1.40;;;20.00;99.90;;;;;;5046506;28;20328;-70
2021/08/08 06:10:59;;;;;;;1.10;1.10;;;20.10;99.90;;;;;;5047745;28;20213;-69
2021/08/08 06:13:26;;;;;;;1.17;1.17;;;20.10;99.90;;;;;;5047581;28;20220;-69
2021/08/08 06:15:55;;;;;;;1.23;1.13;;;20.10;99.90;;;;;;5048271;28;20201;-69
2021/08/08 06:18:22;;;;;;;1.60;1.50;;;20.10;99.90;;;;;;5048400;28;20202;-69
2021/08/08 06:20:50;;;;;;;2.58;1.30;;;20.10;99.90;;;;;;5048039;28;20244;-70
2021/08/08 06:23:24;;;;;;;1.60;1.50;;;20.10;99.90;;;;;;5046879;28;20212;-69
2021/08/08 06:25:52;;;;;;;1.35;1.27;;;20.10;99.90;;;;;;5047314;28;20267;-69
2021/08/08 06:28:20;;;;;;;1.52;1.20;;;20.10;99.90;;;;;;5047725;28;20689;-69
2021/08/08 06:30:47;;;;;;;1.30;1.20;;;20.10;99.90;;;;;;5035134;28;20646;-70
2021/08/08 06:33:16;;;;;;;1.42;1.30;;;20.10;99.90;;;;;;5047554;28;20479;-69
2021/08/08 06:35:44;;;;;;;0.98;0.98;;;20.20;99.90;;;;;;5035176;28;20222;-69
2021/08/08 06:38:11;;;;;;;1.20;1.10;;;20.20;99.90;;;;;;5045910;28;20221;-69
2021/08/08 06:40:38;;;;;;;1.40;1.30;;;20.20;99.90;;;;;;5047320;28;20205;-69
2021/08/08 06:43:05;;;;;;;1.30;1.20;;;20.30;99.90;;;;;;5047210;28;20193;-69
2021/08/08 06:45:38;;;;;;;1.20;1.10;;;20.30;99.90;;;;;;5036143;28;20268;-70
2021/08/08 06:48:06;;;;;;;1.20;1.10;;;20.30;99.90;;;;;;5046603;28;20205;-69
2021/08/08 06:50:33;;;;;;;1.10;1.10;;;20.40;99.90;;;;;;5038453;28;20694;-70
2021/08/08 06:53:01;;;;;;;1.17;1.13;;;20.50;99.90;;;;;;5044780;28;20704;-69
2021/08/08 06:55:28;;;;;;;1.50;1.40;;;20.50;99.90;;;;;;5052201;28;20254;-69
2021/08/08 06:57:55;;;;;;;3.97;1.67;;;20.50;99.90;;;;;;5050329;28;20502;-68
2021/08/08 07:00:23;;;;;;;1.38;1.38;;;20.60;99.90;;;;;;5047618;28;20202;-68
2021/08/08 07:02:51;;;;;;;1.50;1.38;;;20.60;99.90;;;;;;5047682;28;20225;-68
2021/08/08 07:05:18;;;;;;;1.98;1.50;;;20.60;99.90;;;;;;5047918;28;20288;-70
2021/08/08 07:07:45;;;;;;;1.38;1.35;;;20.60;99.90;;;;;;5045472;28;20660;-70
2021/08/08 07:10:13;;;;;;;1.27;1.17;;;20.60;99.90;;;;;;5045909;28;20217;-70
2021/08/08 07:12:40;;;;;;;1.27;1.13;;;20.50;99.90;;;;;;5048608;28;20668;-70
2021/08/08 07:15:09;;;;;;;1.48;1.38;;;20.50;99.90;;;;;;5037348;28;20221;-70
2021/08/08 07:17:37;;;;;;;1.67;1.30;;;20.60;99.90;;;;;;5046262;28;20221;-70
2021/08/08 07:20:08;;;;;;;1.92;1.23;;;20.60;99.90;;;;;;5046938;28;20198;-70
2021/08/08 07:22:35;;;;;;;1.10;1.10;;;20.70;99.90;;;;;;5045472;28;20190;-77
2021/08/08 07:25:02;;;;;;;1.20;1.10;;;20.80;99.90;;;;;;5039861;28;20251;-78
2021/08/08 07:27:29;;;;;;;1.10;1.00;;;20.80;99.90;;;;;;5045971;28;20214;-79
2021/08/08 07:29:56;;;;;;;1.17;1.13;;;20.80;99.90;;;;;;5047149;28;20521;-78
2021/08/08 07:32:23;;;;;;;0.98;0.98;;;20.80;99.90;;;;;;5047255;28;20326;-79
2021/08/08 07:34:50;;;;;;;1.00;1.00;;;20.80;99.90;;;;;;5047583;28;20212;-79
2021/08/08 07:37:19;;;;;;;0.90;0.90;;;20.80;99.90;;;;;;5045986;28;20206;-75
2021/08/08 07:39:46;;;;;;;1.30;1.20;;;20.90;99.90;;;;;;5044404;28;20217;-77
2021/08/08 07:42:13;;;;;;;0.88;0.88;;;20.90;99.90;;;;;;5046716;28;20197;-76
2021/08/08 07:44:40;;;;;;;1.17;1.17;;;21.00;99.90;;;;;;5046663;28;20214;-75
2021/08/08 07:47:07;;;;;;;0.90;0.90;;;21.10;99.90;;;;;;5062136;28;20193;-76
2021/08/08 07:49:35;;;;;;;0.77;0.77;;;21.10;99.90;;;;;;5041932;28;20203;-75
2021/08/08 07:52:02;;;;;;;0.85;0.85;;;21.20;99.90;;;;;;5047948;28;20220;-75
2021/08/08 07:54:30;;;;;;;1.08;1.08;;;21.20;99.90;;;;;;5038913;28;20197;-74
2021/08/08 07:56:57;;;;;;;1.00;1.00;;;21.30;99.90;;;;;;5048133;28;20691;-79
2021/08/08 07:59:24;;;;;;;0.88;0.88;;;21.40;99.90;;;;;;5045578;28;20224;-76
2021/08/08 08:01:53;;;;;;;1.00;1.00;;;21.50;99.90;;;;;;5046934;28;20201;-76
2021/08/08 08:04:20;;;;;;;1.27;1.10;;;21.50;99.90;;;;;;5046387;28;20304;-78
2021/08/08 08:06:48;;;;;;;1.30;1.30;;;21.60;99.90;;;;;;5046655;28;20197;-78
2021/08/08 08:09:15;;;;;;;1.00;1.00;;;21.70;99.90;;;;;;5039626;28;20207;-75
2021/08/08 08:11:44;;;;;;;1.17;1.15;;;21.80;99.90;;;;;;5046855;28;20288;-76
2021/08/08 08:14:11;;;;;;;1.10;1.10;;;21.90;99.90;;;;;;5046365;28;20209;-79
2021/08/08 08:16:38;;;;;;;1.52;1.42;;;22.00;99.90;;;;;;5046596;28;20556;-79
2021/08/08 08:19:05;;;;;;;1.20;1.20;;;22.10;99.90;;;;;;5045357;28;20204;-75
2021/08/08 08:21:32;;;;;;;1.45;1.10;;;22.30;99.90;;;;;;5059592;28;20234;-77
2021/08/08 08:23:59;;;;;;;1.20;1.20;;;22.60;99.90;;;;;;5046671;28;20606;-81
2021/08/08 08:26:26;;;;;;;1.40;1.30;;;23.10;99.90;;;;;;5051052;28;20217;-82
2021/08/08 08:28:55;;;;;;;2.30;1.40;;;23.90;99.90;;;;;;5050199;28;20300;-78
2021/08/08 08:31:22;;;;;;;1.17;1.17;;;24.90;99.90;;;;;;5050456;28;20197;-77
2021/08/08 08:33:49;;;;;;;1.10;1.08;;;26.20;99.90;;;;;;5050681;28;20743;-77
2021/08/08 08:36:16;;;;;;;1.17;1.08;;;27.60;99.90;;;;;;5040757;28;20206;-80
2021/08/08 08:38:43;;;;;;;1.02;1.02;;;28.90;99.90;;;;;;5064774;28;20551;-78
2021/08/08 08:41:14;;;;;;;1.00;1.00;;;30.20;99.90;;;;;;5046823;28;20238;-79
2021/08/08 08:43:42;;;;;;;1.15;1.15;;;31.30;98.60;;;;;;5064741;28;20710;-77
2021/08/08 08:46:12;;;;;;;1.95;1.35;;;32.80;95.60;;;;;;5050081;28;20270;-78
2021/08/08 08:48:41;;;;;;;1.65;1.55;;;34.90;90.40;;;;;;5044759;28;20209;-80
2021/08/08 08:51:09;;;;;;;1.23;1.23;;;36.00;81.80;;;;;;5031856;28;20229;-77
2021/08/08 08:53:36;;;;;;;1.88;1.50;;;36.60;74.30;;;;;;5048782;28;20665;-78
2021/08/08 08:56:04;;;;;;;1.65;1.55;;;36.80;69.60;;;;;;5050565;28;20234;-79
2021/08/08 08:58:36;;;;;;;1.75;1.40;;;36.30;67.20;;;;;;5045296;28;20259;-78
2021/08/08 09:01:04;;;;;;;1.50;1.40;;;35.40;68.20;;;;;;5044899;28;20749;-76
2021/08/08 09:03:32;;;;;;;1.33;1.20;;;34.70;68.50;;;;;;5039473;28;20190;-79
2021/08/08 09:05:59;;;;;;;1.30;1.30;;;34.40;69.10;;;;;;5048781;28;20866;-74
2021/08/08 09:08:26;;;;;;;1.35;1.27;;;34.30;69.10;;;;;;5047361;28;20190;-73
2021/08/08 09:11:02;;;;;;;1.50;1.48;;;34.20;68.50;;;;;;5047791;28;20194;-74
2021/08/08 09:13:31;;;;;;;1.58;1.35;;;33.60;68.50;;;;;;5044205;28;20316;-77
2021/08/08 09:15:59;;;;;;;1.20;1.20;;;33.20;69.40;;;;;;5044867;28;20569;-78
2021/08/08 09:18:26;;;;;;;1.77;1.20;;;32.80;69.70;;;;;;5046586;28;20289;-73
2021/08/08 09:21:09;;;;;;;1.13;1.13;;;32.30;70.20;;;;;;5048410;28;20728;-83
2021/08/08 09:23:40;;;;;;;1.20;1.20;;;31.80;70.90;;;;;;5047896;28;20231;-77
2021/08/08 09:26:07;;;;;;;1.55;1.45;;;31.30;71.90;;;;;;5048712;28;20647;-76
2021/08/08 09:28:39;;;;;;;1.42;1.33;;;30.90;72.20;;;;;;5048175;28;20198;-71
2021/08/08 09:31:18;;;;;;;2.53;1.10;;;30.40;73.00;;;;;;5048298;28;20198;-77
2021/08/08 09:33:46;;;;;;;1.15;1.15;;;30.10;73.90;;;;;;5056976;28;20225;-81
2021/08/08 09:36:14;;;;;;;1.10;1.10;;;29.90;74.70;;;;;;5074397;28;20178;-78
2021/08/08 09:38:45;;;;;;;1.08;1.08;;;29.70;74.80;;;;;;5065048;28;20212;-78
2021/08/08 09:41:12;;;;;;;1.00;1.00;;;29.70;75.10;;;;;;5052760;28;20230;-76
2021/08/08 09:43:39;;;;;;;1.50;1.35;;;29.80;75.20;;;;;;5049717;28;20704;-82
2021/08/08 09:46:06;;;;;;;1.30;1.30;;;29.80;75.10;;;;;;5050506;28;20225;-82
2021/08/08 09:48:37;;;;;;;1.40;1.30;;;30.40;75.00;;;;;;5046703;28;20541;-77
2021/08/08 09:51:06;;;;;;;1.17;1.17;;;32.70;71.70;;;;;;5048670;28;20447;-79
2021/08/08 09:53:34;;;;;;;1.13;1.13;;;35.10;66.00;;;;;;5046457;28;20217;-77
2021/08/08 09:56:02;;;;;;;1.20;1.20;;;37.50;59.90;;;;;;5050239;28;20198;-77
2021/08/08 09:58:39;;;;;;;2.08;1.48;;;39.40;55.80;;;;;;5041673;28;20249;-71
2021/08/08 10:01:06;;;;;;;1.55;1.55;;;40.30;52.60;;;;;;5047031;28;20209;-71
2021/08/08 10:03:34;;;;;;;1.50;1.50;;;41.90;49.00;;;;;;5048939;28;20672;-71
2021/08/08 10:06:03;;;;;;;1.83;1.73;;;43.60;45.30;;;;;;5049614;28;20201;-70
2021/08/08 10:08:31;;;;;;;1.50;1.50;;;44.50;42.20;;;;;;5046526;28;20594;-70
2021/08/08 10:10:59;;;;;;;1.65;1.65;;;44.60;40.40;;;;;;5048685;28;20197;-70
2021/08/08 10:13:37;;;;;;;2.10;2.00;;;44.00;40.00;;;;;;5049800;28;20235;-70
2021/08/08 10:16:09;;;;;;;2.30;2.20;;;42.90;40.00;;;;;;5049700;28;20200;-70
2021/08/08 10:18:40;;;;;;;2.00;1.90;;;42.00;40.60;;;;;;5048477;28;20201;-71
2021/08/08 10:21:09;;;;;;;1.70;1.70;;;41.10;41.00;;;;;;5049364;28;20239;-71
2021/08/08 10:23:37;;;;;;;1.58;1.58;;;40.10;42.40;;;;;;5048678;28;20224;-70
2021/08/08 10:26:06;;;;;;;2.03;1.83;;;39.10;43.40;;;;;;5047860;28;20233;-70
2021/08/08 10:28:33;;;;;;;1.58;1.58;;;38.10;44.40;;;;;;5048894;28;20224;-70
2021/08/08 10:31:02;;;;;;;1.98;1.88;;;37.30;45.10;;;;;;5049063;28;20189;-70
2021/08/08 10:33:29;;;;;;;2.22;2.13;;;37.40;44.60;;;;;;5048974;28;20435;-70
2021/08/08 10:35:56;;;;;;;1.80;1.80;;;37.40;44.40;;;;;;5049619;28;20189;-71
2021/08/08 10:38:23;;;;;;;2.08;1.98;;;37.70;44.20;;;;;;5047840;28;20206;-71
2021/08/08 10:40:50;;;;;;;1.98;1.88;;;38.80;42.90;;;;;;5046839;28;20205;-71
2021/08/08 10:43:27;;;;;;;1.90;1.80;;;39.50;41.90;;;;;;5048943;28;20190;-70
2021/08/08 10:46:04;;;;;;;1.65;1.65;;;38.90;41.70;;;;;;5048507;28;20308;-70
2021/08/08 10:48:34;;;;;;;1.45;1.45;;;38.20;42.50;;;;;;5048401;28;20271;-70
2021/08/08 10:51:03;;;;;;;1.88;1.85;;;38.50;42.80;;;;;;5046252;28;20206;-71
2021/08/08 10:53:31;;;;;;;1.80;1.70;;;38.60;41.90;;;;;;5047642;28;20684;-71
2021/08/08 10:56:07;;;;;;;1.90;1.80;;;38.50;42.10;;;;;;5055481;28;20204;-71
2021/08/08 10:58:37;;;;;;;1.70;1.60;;;38.30;42.40;;;;;;5047390;28;20204;-70
2021/08/08 11:01:16;;;;;;;1.30;1.30;;;37.70;42.70;;;;;;5047203;28;20201;-70
2021/08/08 11:03:51;;;;;;;1.60;1.60;;;37.20;43.30;;;;;;5048735;28;20221;-70
2021/08/08 11:06:20;;;;;;;1.55;1.55;;;36.70;43.70;;;;;;5048814;28;20201;-71
2021/08/08 11:08:52;;;;;;;1.65;1.65;;;36.00;44.20;;;;;;5047031;28;20208;-71
2021/08/08 11:11:24;;;;;;;1.60;1.60;;;35.80;44.80;;;;;;5047515;28;20350;-71
2021/08/08 11:13:52;;;;;;;1.70;1.60;;;36.40;44.70;;;;;;5048578;28;20313;-70
2021/08/08 11:16:19;;;;;;;2.00;1.90;;;37.60;43.50;;;;;;5048775;28;20211;-70
2021/08/08 11:18:55;;;;;;;1.58;1.58;;;39.30;42.00;;;;;;5047900;28;20193;-71
2021/08/08 11:21:22;;;;;;;2.80;1.55;;;41.10;40.00;;;;;;5048320;28;20264;-70
2021/08/08 11:23:54;;;;;;;1.77;1.67;;;42.50;37.70;;;;;;5047076;28;20212;-71
2021/08/08 11:26:21;;;;;;;1.75;1.60;;;43.60;35.80;;;;;;5048463;28;20243;-71
2021/08/08 11:28:53;;;;;;;1.63;1.63;;;44.60;34.30;;;;;;5048221;28;20185;-71
2021/08/08 11:31:21;;;;;;;1.95;1.85;;;44.50;33.70;;;;;;5048166;28;20212;-71
2021/08/08 11:33:54;;;;;;;2.03;1.92;;;44.50;33.70;;;;;;5047926;28;20260;-70
2021/08/08 11:36:27;;;;;;;2.05;1.95;;;43.80;33.30;;;;;;5047394;28;20551;-71
2021/08/08 11:38:55;;;;;;;1.80;1.70;;;43.40;33.70;;;;;;5046160;28;20705;-72
2021/08/08 11:41:23;;;;;;;2.13;2.03;;;44.20;33.50;;;;;;5047487;28;20200;-70
2021/08/08 11:44:02;;;;;;;2.30;2.20;;;45.30;32.10;;;;;;5038529;28;20224;-70
2021/08/08 11:46:29;;;;;;;2.15;2.05;;;45.90;31.20;;;;;;5047276;28;20197;-71
2021/08/08 11:48:56;;;;;;;2.13;2.03;;;46.50;30.60;;;;;;5047700;28;20193;-71
2021/08/08 11:51:23;;;;;;;2.05;2.00;;;46.90;30.10;;;;;;5047539;28;20568;-71
2021/08/08 11:53:55;;;;;;;2.17;2.08;;;46.00;29.90;;;;;;5045262;28;20727;-71
2021/08/08 11:56:24;;;;;;;1.90;1.80;;;44.70;30.60;;;;;;5059423;28;20228;-72
2021/08/08 11:58:54;;;;;;;2.40;2.30;;;44.80;30.90;;;;;;5054804;28;20673;-72
2021/08/08 12:01:23;;;;;;;2.33;2.22;;;45.10;30.30;;;;;;5054603;28;20205;-71
2021/08/08 12:03:51;;;;;;;2.85;2.22;;;45.40;30.50;;;;;;5054914;28;20618;-72
2021/08/08 12:06:22;;;;;;;2.45;2.35;;;45.60;29.80;;;;;;5054911;28;20653;-71
2021/08/08 12:08:50;;;;;;;2.53;2.33;;;45.10;29.70;;;;;;5053242;28;20311;-71
2021/08/08 12:11:20;;;;;;;2.35;2.25;;;44.40;30.30;;;;;;5053463;28;20193;-71
2021/08/08 12:13:59;;;;;;;2.50;2.40;;;44.40;30.50;;;;;;5054505;28;20271;-71
2021/08/08 12:16:33;;;;;;;2.40;2.30;;;44.50;30.30;;;;;;5052709;28;20228;-70
2021/08/08 12:19:00;;;;;;;2.30;2.20;;;43.90;30.40;;;;;;5053970;28;20274;-70
2021/08/08 12:21:27;;;;;;;2.35;2.25;;;43.10;30.90;;;;;;5053993;28;20244;-70
2021/08/08 12:24:04;;;;;;;2.63;2.50;;;42.30;31.40;;;;;;5052458;28;20197;-70
2021/08/08 12:26:31;;;;;;;2.28;2.17;;;41.30;32.40;;;;;;5055045;28;20208;-70
2021/08/08 12:29:02;;;;;;;2.40;2.30;;;40.30;33.30;;;;;;5053763;28;20292;-69
2021/08/08 12:31:37;;;;;;;2.13;2.03;;;39.30;34.40;;;;;;5053391;28;20307;-70
2021/08/08 12:34:06;;;;;;;2.30;2.20;;;38.60;35.30;;;;;;5052836;28;20240;-70
2021/08/08 12:36:38;;;;;;;2.08;1.98;;;37.80;36.00;;;;;;5048072;28;20286;-69
2021/08/08 12:39:06;;;;;;;2.10;2.00;;;37.10;36.70;;;;;;5051454;28;20205;-71
2021/08/08 12:41:37;;;;;;;2.22;2.10;;;36.50;37.20;;;;;;5053565;28;20193;-69
2021/08/08 12:44:05;;;;;;;1.83;1.73;;;35.90;37.70;;;;;;5053610;28;20189;-71
2021/08/08 12:46:33;;;;;;;2.50;2.40;;;35.40;37.90;;;;;;5052701;28;20209;-70
2021/08/08 12:49:03;;;;;;;2.05;1.95;;;35.10;38.30;;;;;;5051946;28;20201;-73
2021/08/08 12:51:30;;;;;;;2.47;2.30;;;34.70;38.50;;;;;;5050427;28;20219;-72
2021/08/08 12:53:57;;;;;;;2.10;1.98;;;34.30;39.30;;;;;;5052618;28;20292;-74
2021/08/08 12:56:24;;;;;;;4.13;3.13;;;34.00;39.90;;;;;;5062610;28;20211;-73